KEZS

Shawano Municipal Airport

Shawano, Wisconsin, USA
METAR KEZS 171635Z AUTO 06006KT 10SM CLR 26/18 A3000 RMK AO2 LTG DSNT SE T02610180
Observed Flight Rules
Aug-17 @ 16:35 UTC (16 minutes ago) Visual Flight Rules
Wind Visibility Clouds
60° at 6 knots 10 miles
  • Clear skies
Temperatures Readings
Current 26°C / 79°F
Dewpoint 18°C / 64°F
Humidity 61%
Altimeter 30" Hg
Pressure 1016 hPa
Elevation 248
METAR KEZS 171635Z AUTO 06006KT 10SM CLR 26/18 A3000 RMK AO2 LTG DSNT SE T02610180
Observed Flight Rules
Aug-17 @ 16:35 UTC
(16 minutes ago)
VFR
Wind Visibility
60° at 6 knots 10 miles
Clouds
  • Clear skies
Temperature Dewpoint
26°C / 79°F 18°C / 64°F
Humidity Altimeter Pressure
61% 30" Hg 1016 hPa